sensor_id;sensor_type;location;lat;lon;timestamp;P1;durP1;ratioP1;P2;durP2;ratioP2
51738;SDS011;37815;52.692;6.226;2023-01-10T00:00:29;0.85;;;0.52;;
51738;SDS011;37815;52.692;6.226;2023-01-10T00:05:34;2.75;;;0.95;;
51738;SDS011;37815;52.692;6.226;2023-01-10T00:10:36;2.40;;;0.80;;
51738;SDS011;37815;52.692;6.226;2023-01-10T00:15:37;5.63;;;1.10;;
51738;SDS011;37815;52.692;6.226;2023-01-10T00:20:38;1.83;;;0.80;;
51738;SDS011;37815;52.692;6.226;2023-01-10T00:25:39;1.67;;;0.75;;
51738;SDS011;37815;52.692;6.226;2023-01-10T00:30:40;2.83;;;1.00;;
51738;SDS011;37815;52.692;6.226;2023-01-10T00:35:41;0.68;;;0.57;;
51738;SDS011;37815;52.692;6.226;2023-01-10T00:40:41;2.30;;;1.38;;
51738;SDS011;37815;52.692;6.226;2023-01-10T00:45:45;2.15;;;0.80;;
51738;SDS011;37815;52.692;6.226;2023-01-10T00:50:46;2.55;;;0.70;;
51738;SDS011;37815;52.692;6.226;2023-01-10T00:55:47;4.00;;;1.02;;
51738;SDS011;37815;52.692;6.226;2023-01-10T01:00:48;2.92;;;0.73;;
51738;SDS011;37815;52.692;6.226;2023-01-10T01:05:49;2.35;;;1.00;;
51738;SDS011;37815;52.692;6.226;2023-01-10T01:10:51;2.28;;;0.95;;
51738;SDS011;37815;52.692;6.226;2023-01-10T01:15:51;1.73;;;0.77;;
51738;SDS011;37815;52.692;6.226;2023-01-10T01:20:53;1.33;;;1.23;;
51738;SDS011;37815;52.692;6.226;2023-01-10T01:25:55;4.13;;;1.17;;
51738;SDS011;37815;52.692;6.226;2023-01-10T01:30:56;2.90;;;0.95;;
51738;SDS011;37815;52.692;6.226;2023-01-10T01:35:57;1.77;;;0.68;;
51738;SDS011;37815;52.692;6.226;2023-01-10T01:40:57;3.88;;;0.98;;
51738;SDS011;37815;52.692;6.226;2023-01-10T01:45:58;3.85;;;1.13;;
51738;SDS011;37815;52.692;6.226;2023-01-10T01:51:06;2.45;;;0.80;;
51738;SDS011;37815;52.692;6.226;2023-01-10T01:56:38;1.88;;;0.90;;
51738;SDS011;37815;52.692;6.226;2023-01-10T02:01:44;3.72;;;1.02;;
51738;SDS011;37815;52.692;6.226;2023-01-10T02:06:48;5.68;;;1.08;;
51738;SDS011;37815;52.692;6.226;2023-01-10T02:11:53;3.40;;;1.23;;
51738;SDS011;37815;52.692;6.226;2023-01-10T02:16:55;3.45;;;0.80;;
51738;SDS011;37815;52.692;6.226;2023-01-10T02:22:12;2.45;;;0.95;;
51738;SDS011;37815;52.692;6.226;2023-01-10T02:32:45;1.75;;;0.77;;
51738;SDS011;37815;52.692;6.226;2023-01-10T02:37:59;4.30;;;0.90;;
51738;SDS011;37815;52.692;6.226;2023-01-10T02:43:05;3.22;;;1.05;;
51738;SDS011;37815;52.692;6.226;2023-01-10T02:48:09;4.28;;;0.85;;
51738;SDS011;37815;52.692;6.226;2023-01-10T03:09:20;2.58;;;1.10;;
51738;SDS011;37815;52.692;6.226;2023-01-10T03:14:38;4.18;;;0.80;;
51738;SDS011;37815;52.692;6.226;2023-01-10T03:19:45;2.17;;;0.93;;
51738;SDS011;37815;52.692;6.226;2023-01-10T03:24:49;3.28;;;1.10;;
51738;SDS011;37815;52.692;6.226;2023-01-10T03:35:11;2.45;;;1.02;;
51738;SDS011;37815;52.692;6.226;2023-01-10T03:40:18;1.75;;;0.80;;
51738;SDS011;37815;52.692;6.226;2023-01-10T03:45:31;4.30;;;1.00;;
51738;SDS011;37815;52.692;6.226;2023-01-10T03:50:38;4.05;;;1.77;;
51738;SDS011;37815;52.692;6.226;2023-01-10T03:55:42;1.67;;;0.52;;
51738;SDS011;37815;52.692;6.226;2023-01-10T04:00:44;3.30;;;1.23;;
51738;SDS011;37815;52.692;6.226;2023-01-10T04:05:44;3.00;;;0.88;;
51738;SDS011;37815;52.692;6.226;2023-01-10T04:10:47;2.50;;;1.27;;
51738;SDS011;37815;52.692;6.226;2023-01-10T04:15:48;1.30;;;0.70;;
51738;SDS011;37815;52.692;6.226;2023-01-10T04:20:50;2.85;;;0.75;;
51738;SDS011;37815;52.692;6.226;2023-01-10T04:25:50;3.35;;;1.13;;
51738;SDS011;37815;52.692;6.226;2023-01-10T04:30:51;3.50;;;0.73;;
51738;SDS011;37815;52.692;6.226;2023-01-10T04:35:52;1.25;;;0.80;;
51738;SDS011;37815;52.692;6.226;2023-01-10T04:40:53;3.80;;;1.00;;
51738;SDS011;37815;52.692;6.226;2023-01-10T04:45:55;3.03;;;0.82;;
51738;SDS011;37815;52.692;6.226;2023-01-10T04:50:55;2.80;;;0.88;;
51738;SDS011;37815;52.692;6.226;2023-01-10T04:56:05;1.85;;;1.00;;
51738;SDS011;37815;52.692;6.226;2023-01-10T05:01:08;4.97;;;0.95;;
51738;SDS011;37815;52.692;6.226;2023-01-10T05:06:10;2.25;;;0.80;;
51738;SDS011;37815;52.692;6.226;2023-01-10T05:11:11;5.75;;;1.00;;
51738;SDS011;37815;52.692;6.226;2023-01-10T05:16:12;1.13;;;0.60;;
51738;SDS011;37815;52.692;6.226;2023-01-10T05:21:14;2.65;;;0.77;;
51738;SDS011;37815;52.692;6.226;2023-01-10T05:26:15;2.90;;;0.80;;
51738;SDS011;37815;52.692;6.226;2023-01-10T05:31:18;3.67;;;0.98;;
51738;SDS011;37815;52.692;6.226;2023-01-10T05:36:19;3.20;;;1.05;;
51738;SDS011;37815;52.692;6.226;2023-01-10T05:41:19;2.97;;;1.20;;
51738;SDS011;37815;52.692;6.226;2023-01-10T05:46:20;3.17;;;1.00;;
51738;SDS011;37815;52.692;6.226;2023-01-10T05:51:21;5.32;;;0.93;;
51738;SDS011;37815;52.692;6.226;2023-01-10T05:56:22;2.00;;;0.70;;
51738;SDS011;37815;52.692;6.226;2023-01-10T06:01:22;2.50;;;0.70;;
51738;SDS011;37815;52.692;6.226;2023-01-10T06:06:23;3.60;;;1.00;;
51738;SDS011;37815;52.692;6.226;2023-01-10T06:11:23;3.08;;;1.00;;
51738;SDS011;37815;52.692;6.226;2023-01-10T06:16:28;2.45;;;0.88;;
51738;SDS011;37815;52.692;6.226;2023-01-10T06:21:29;3.45;;;0.88;;
51738;SDS011;37815;52.692;6.226;2023-01-10T06:26:30;2.47;;;1.00;;
51738;SDS011;37815;52.692;6.226;2023-01-10T06:31:31;2.50;;;1.10;;
51738;SDS011;37815;52.692;6.226;2023-01-10T06:36:31;6.20;;;0.85;;
51738;SDS011;37815;52.692;6.226;2023-01-10T06:41:32;2.60;;;0.93;;
51738;SDS011;37815;52.692;6.226;2023-01-10T06:46:32;3.13;;;0.90;;
51738;SDS011;37815;52.692;6.226;2023-01-10T06:51:33;2.75;;;1.10;;
51738;SDS011;37815;52.692;6.226;2023-01-10T06:56:34;3.65;;;1.08;;
51738;SDS011;37815;52.692;6.226;2023-01-10T07:01:35;2.25;;;0.70;;
51738;SDS011;37815;52.692;6.226;2023-01-10T07:06:36;2.67;;;0.90;;
51738;SDS011;37815;52.692;6.226;2023-01-10T07:11:37;1.10;;;0.60;;
51738;SDS011;37815;52.692;6.226;2023-01-10T07:16:38;3.13;;;0.80;;
51738;SDS011;37815;52.692;6.226;2023-01-10T07:21:39;1.58;;;0.90;;
51738;SDS011;37815;52.692;6.226;2023-01-10T07:26:40;4.40;;;1.00;;
51738;SDS011;37815;52.692;6.226;2023-01-10T07:31:41;3.08;;;0.90;;
51738;SDS011;37815;52.692;6.226;2023-01-10T07:36:42;3.13;;;1.52;;
51738;SDS011;37815;52.692;6.226;2023-01-10T07:41:42;6.75;;;1.20;;
51738;SDS011;37815;52.692;6.226;2023-01-10T07:46:43;4.50;;;0.90;;
51738;SDS011;37815;52.692;6.226;2023-01-10T07:51:43;4.25;;;1.70;;
51738;SDS011;37815;52.692;6.226;2023-01-10T07:56:44;5.15;;;1.40;;
51738;SDS011;37815;52.692;6.226;2023-01-10T08:01:46;4.82;;;1.10;;
51738;SDS011;37815;52.692;6.226;2023-01-10T08:06:47;4.65;;;1.10;;
51738;SDS011;37815;52.692;6.226;2023-01-10T08:11:48;6.85;;;1.50;;
51738;SDS011;37815;52.692;6.226;2023-01-10T08:16:48;3.53;;;1.00;;
51738;SDS011;37815;52.692;6.226;2023-01-10T08:21:49;5.43;;;1.30;;
51738;SDS011;37815;52.692;6.226;2023-01-10T08:26:50;3.10;;;0.80;;
51738;SDS011;37815;52.692;6.226;2023-01-10T08:31:50;5.30;;;1.13;;
51738;SDS011;37815;52.692;6.226;2023-01-10T08:36:52;2.08;;;1.05;;
51738;SDS011;37815;52.692;6.226;2023-01-10T08:47:00;4.47;;;1.42;;
51738;SDS011;37815;52.692;6.226;2023-01-10T08:52:01;4.78;;;1.63;;
51738;SDS011;37815;52.692;6.226;2023-01-10T08:57:02;3.60;;;1.10;;
51738;SDS011;37815;52.692;6.226;2023-01-10T09:02:02;4.18;;;1.10;;
51738;SDS011;37815;52.692;6.226;2023-01-10T09:07:03;4.45;;;1.60;;
51738;SDS011;37815;52.692;6.226;2023-01-10T09:12:04;4.57;;;1.02;;
51738;SDS011;37815;52.692;6.226;2023-01-10T09:17:25;3.83;;;1.40;;
51738;SDS011;37815;52.692;6.226;2023-01-10T09:22:25;3.30;;;1.00;;
51738;SDS011;37815;52.692;6.226;2023-01-10T09:27:26;4.88;;;1.30;;
51738;SDS011;37815;52.692;6.226;2023-01-10T09:32:27;3.47;;;1.27;;
51738;SDS011;37815;52.692;6.226;2023-01-10T09:37:27;2.65;;;1.20;;
51738;SDS011;37815;52.692;6.226;2023-01-10T09:47:51;5.65;;;1.83;;
51738;SDS011;37815;52.692;6.226;2023-01-10T09:53:00;3.85;;;0.88;;
51738;SDS011;37815;52.692;6.226;2023-01-10T09:58:12;4.38;;;1.30;;
51738;SDS011;37815;52.692;6.226;2023-01-10T10:03:21;4.90;;;1.60;;
51738;SDS011;37815;52.692;6.226;2023-01-10T10:08:29;6.72;;;1.60;;
51738;SDS011;37815;52.692;6.226;2023-01-10T10:24:21;4.55;;;1.73;;
51738;SDS011;37815;52.692;6.226;2023-01-10T10:29:54;6.40;;;2.13;;
51738;SDS011;37815;52.692;6.226;2023-01-10T10:35:14;7.65;;;1.95;;
51738;SDS011;37815;52.692;6.226;2023-01-10T10:40:37;7.80;;;1.83;;
51738;SDS011;37815;52.692;6.226;2023-01-10T10:45:41;7.50;;;1.80;;
51738;SDS011;37815;52.692;6.226;2023-01-10T10:50:55;10.18;;;2.55;;
51738;SDS011;37815;52.692;6.226;2023-01-10T10:56:12;6.18;;;2.10;;
51738;SDS011;37815;52.692;6.226;2023-01-10T11:01:16;4.20;;;1.98;;
51738;SDS011;37815;52.692;6.226;2023-01-10T11:06:18;4.93;;;1.98;;
51738;SDS011;37815;52.692;6.226;2023-01-10T11:16:30;8.85;;;2.60;;
51738;SDS011;37815;52.692;6.226;2023-01-10T11:21:31;5.97;;;2.75;;
51738;SDS011;37815;52.692;6.226;2023-01-10T11:26:35;8.68;;;2.33;;
51738;SDS011;37815;52.692;6.226;2023-01-10T11:31:39;5.25;;;2.03;;
51738;SDS011;37815;52.692;6.226;2023-01-10T11:41:55;9.40;;;2.22;;
51738;SDS011;37815;52.692;6.226;2023-01-10T11:47:00;8.13;;;2.45;;
51738;SDS011;37815;52.692;6.226;2023-01-10T11:57:27;11.20;;;2.65;;
51738;SDS011;37815;52.692;6.226;2023-01-10T12:02:34;5.35;;;2.22;;
51738;SDS011;37815;52.692;6.226;2023-01-10T12:13:44;5.35;;;1.88;;
51738;SDS011;37815;52.692;6.226;2023-01-10T12:18:29;10.93;;;2.70;;
51738;SDS011;37815;52.692;6.226;2023-01-10T12:23:30;5.60;;;1.90;;
51738;SDS011;37815;52.692;6.226;2023-01-10T12:28:34;9.70;;;2.10;;
51738;SDS011;37815;52.692;6.226;2023-01-10T12:33:37;13.82;;;2.95;;
51738;SDS011;37815;52.692;6.226;2023-01-10T12:44:46;7.57;;;2.05;;
51738;SDS011;37815;52.692;6.226;2023-01-10T12:49:46;6.50;;;2.25;;
51738;SDS011;37815;52.692;6.226;2023-01-10T12:54:48;7.20;;;2.38;;
51738;SDS011;37815;52.692;6.226;2023-01-10T12:59:49;9.90;;;2.88;;
51738;SDS011;37815;52.692;6.226;2023-01-10T13:04:55;14.90;;;2.88;;
51738;SDS011;37815;52.692;6.226;2023-01-10T13:10:00;10.27;;;2.05;;
51738;SDS011;37815;52.692;6.226;2023-01-10T13:15:08;10.95;;;2.75;;
51738;SDS011;37815;52.692;6.226;2023-01-10T13:25:32;11.68;;;3.00;;
51738;SDS011;37815;52.692;6.226;2023-01-10T13:30:37;10.88;;;2.28;;
51738;SDS011;37815;52.692;6.226;2023-01-10T13:35:42;6.15;;;1.80;;
51738;SDS011;37815;52.692;6.226;2023-01-10T13:41:00;6.95;;;1.70;;
51738;SDS011;37815;52.692;6.226;2023-01-10T13:51:19;6.60;;;2.13;;
51738;SDS011;37815;52.692;6.226;2023-01-10T13:56:38;8.30;;;1.70;;
51738;SDS011;37815;52.692;6.226;2023-01-10T14:01:40;9.45;;;1.85;;
51738;SDS011;37815;52.692;6.226;2023-01-10T14:07:05;9.57;;;1.95;;
51738;SDS011;37815;52.692;6.226;2023-01-10T14:12:21;9.88;;;2.42;;
51738;SDS011;37815;52.692;6.226;2023-01-10T14:17:29;8.13;;;2.30;;
51738;SDS011;37815;52.692;6.226;2023-01-10T14:22:32;10.05;;;2.40;;
51738;SDS011;37815;52.692;6.226;2023-01-10T14:27:44;10.65;;;2.55;;
51738;SDS011;37815;52.692;6.226;2023-01-10T14:32:48;8.25;;;2.60;;
51738;SDS011;37815;52.692;6.226;2023-01-10T14:37:55;12.30;;;1.75;;
51738;SDS011;37815;52.692;6.226;2023-01-10T14:42:57;9.38;;;2.35;;
51738;SDS011;37815;52.692;6.226;2023-01-10T14:48:21;7.82;;;1.50;;
51738;SDS011;37815;52.692;6.226;2023-01-10T14:53:28;7.68;;;1.60;;
51738;SDS011;37815;52.692;6.226;2023-01-10T14:58:29;11.27;;;2.10;;
51738;SDS011;37815;52.692;6.226;2023-01-10T15:03:29;13.70;;;2.10;;
51738;SDS011;37815;52.692;6.226;2023-01-10T15:08:30;10.68;;;2.05;;
51738;SDS011;37815;52.692;6.226;2023-01-10T15:13:32;5.88;;;1.60;;
51738;SDS011;37815;52.692;6.226;2023-01-10T15:18:43;5.17;;;1.50;;
51738;SDS011;37815;52.692;6.226;2023-01-10T15:23:46;10.90;;;1.90;;
51738;SDS011;37815;52.692;6.226;2023-01-10T15:29:00;9.68;;;2.30;;
51738;SDS011;37815;52.692;6.226;2023-01-10T15:34:24;10.52;;;1.95;;
51738;SDS011;37815;52.692;6.226;2023-01-10T15:39:28;6.70;;;1.73;;
51738;SDS011;37815;52.692;6.226;2023-01-10T15:44:38;6.80;;;1.95;;
51738;SDS011;37815;52.692;6.226;2023-01-10T15:49:51;6.63;;;2.10;;
51738;SDS011;37815;52.692;6.226;2023-01-10T15:54:53;6.25;;;1.90;;
51738;SDS011;37815;52.692;6.226;2023-01-10T15:59:55;10.40;;;2.17;;
51738;SDS011;37815;52.692;6.226;2023-01-10T16:04:58;9.52;;;1.83;;
51738;SDS011;37815;52.692;6.226;2023-01-10T16:10:20;9.77;;;2.08;;
51738;SDS011;37815;52.692;6.226;2023-01-10T16:15:25;8.55;;;1.95;;
51738;SDS011;37815;52.692;6.226;2023-01-10T16:20:45;8.38;;;2.22;;
51738;SDS011;37815;52.692;6.226;2023-01-10T16:25:48;6.82;;;1.85;;
51738;SDS011;37815;52.692;6.226;2023-01-10T16:30:51;8.65;;;2.28;;
51738;SDS011;37815;52.692;6.226;2023-01-10T16:35:55;7.68;;;2.10;;
51738;SDS011;37815;52.692;6.226;2023-01-10T16:40:58;8.13;;;2.45;;
51738;SDS011;37815;52.692;6.226;2023-01-10T16:46:20;9.70;;;2.40;;
51738;SDS011;37815;52.692;6.226;2023-01-10T16:51:22;12.25;;;1.92;;
51738;SDS011;37815;52.692;6.226;2023-01-10T16:56:29;7.57;;;1.80;;
51738;SDS011;37815;52.692;6.226;2023-01-10T17:01:30;6.45;;;1.83;;
51738;SDS011;37815;52.692;6.226;2023-01-10T17:06:36;7.95;;;2.13;;
51738;SDS011;37815;52.692;6.226;2023-01-10T17:11:39;8.07;;;1.83;;
51738;SDS011;37815;52.692;6.226;2023-01-10T17:16:41;7.43;;;1.60;;
51738;SDS011;37815;52.692;6.226;2023-01-10T17:21:42;10.02;;;2.15;;
51738;SDS011;37815;52.692;6.226;2023-01-10T17:26:42;5.45;;;1.67;;
51738;SDS011;37815;52.692;6.226;2023-01-10T17:31:43;11.63;;;1.77;;
51738;SDS011;37815;52.692;6.226;2023-01-10T17:36:44;7.32;;;1.48;;
51738;SDS011;37815;52.692;6.226;2023-01-10T17:41:44;3.83;;;1.25;;
51738;SDS011;37815;52.692;6.226;2023-01-10T17:46:45;5.80;;;1.38;;
51738;SDS011;37815;52.692;6.226;2023-01-10T17:51:45;3.95;;;1.33;;
51738;SDS011;37815;52.692;6.226;2023-01-10T17:56:46;4.15;;;1.50;;
51738;SDS011;37815;52.692;6.226;2023-01-10T18:01:47;6.32;;;1.55;;
51738;SDS011;37815;52.692;6.226;2023-01-10T18:06:47;4.30;;;1.52;;
51738;SDS011;37815;52.692;6.226;2023-01-10T18:11:51;2.05;;;1.13;;
51738;SDS011;37815;52.692;6.226;2023-01-10T18:16:51;3.63;;;1.45;;
51738;SDS011;37815;52.692;6.226;2023-01-10T18:21:52;2.65;;;1.10;;
51738;SDS011;37815;52.692;6.226;2023-01-10T18:26:52;5.57;;;1.27;;
51738;SDS011;37815;52.692;6.226;2023-01-10T18:31:53;2.75;;;1.30;;
51738;SDS011;37815;52.692;6.226;2023-01-10T18:36:54;6.05;;;1.40;;
51738;SDS011;37815;52.692;6.226;2023-01-10T18:41:54;3.08;;;1.35;;
51738;SDS011;37815;52.692;6.226;2023-01-10T18:46:56;3.75;;;1.73;;
51738;SDS011;37815;52.692;6.226;2023-01-10T18:51:57;4.07;;;1.30;;
51738;SDS011;37815;52.692;6.226;2023-01-10T18:56:57;2.13;;;1.20;;
51738;SDS011;37815;52.692;6.226;2023-01-10T19:01:58;5.13;;;1.50;;
51738;SDS011;37815;52.692;6.226;2023-01-10T19:06:59;2.45;;;1.58;;
51738;SDS011;37815;52.692;6.226;2023-01-10T19:11:59;2.13;;;1.25;;
51738;SDS011;37815;52.692;6.226;2023-01-10T19:17:00;3.70;;;1.38;;
51738;SDS011;37815;52.692;6.226;2023-01-10T19:22:00;3.72;;;1.60;;
51738;SDS011;37815;52.692;6.226;2023-01-10T19:27:01;5.95;;;1.63;;
51738;SDS011;37815;52.692;6.226;2023-01-10T19:32:02;2.47;;;1.27;;
51738;SDS011;37815;52.692;6.226;2023-01-10T19:37:03;3.42;;;1.58;;
51738;SDS011;37815;52.692;6.226;2023-01-10T19:42:03;3.72;;;1.67;;
51738;SDS011;37815;52.692;6.226;2023-01-10T19:47:04;1.85;;;1.60;;
51738;SDS011;37815;52.692;6.226;2023-01-10T19:52:05;2.47;;;1.58;;
51738;SDS011;37815;52.692;6.226;2023-01-10T19:57:05;5.03;;;1.80;;
51738;SDS011;37815;52.692;6.226;2023-01-10T20:02:10;2.38;;;1.75;;
51738;SDS011;37815;52.692;6.226;2023-01-10T20:07:11;3.15;;;1.60;;
51738;SDS011;37815;52.692;6.226;2023-01-10T20:12:12;2.78;;;1.52;;
51738;SDS011;37815;52.692;6.226;2023-01-10T20:17:13;4.82;;;2.17;;
51738;SDS011;37815;52.692;6.226;2023-01-10T20:22:14;4.40;;;1.90;;
51738;SDS011;37815;52.692;6.226;2023-01-10T20:27:15;2.45;;;1.67;;
51738;SDS011;37815;52.692;6.226;2023-01-10T20:32:15;3.10;;;1.98;;
51738;SDS011;37815;52.692;6.226;2023-01-10T20:37:16;6.80;;;2.55;;
51738;SDS011;37815;52.692;6.226;2023-01-10T20:42:17;2.90;;;1.88;;
51738;SDS011;37815;52.692;6.226;2023-01-10T20:47:17;4.00;;;2.40;;
51738;SDS011;37815;52.692;6.226;2023-01-10T20:52:20;4.53;;;2.70;;
51738;SDS011;37815;52.692;6.226;2023-01-10T20:57:21;4.13;;;2.38;;
51738;SDS011;37815;52.692;6.226;2023-01-10T21:02:21;4.68;;;2.20;;
51738;SDS011;37815;52.692;6.226;2023-01-10T21:07:22;3.03;;;2.30;;
51738;SDS011;37815;52.692;6.226;2023-01-10T21:12:23;4.82;;;2.25;;
51738;SDS011;37815;52.692;6.226;2023-01-10T21:17:24;3.22;;;1.92;;
51738;SDS011;37815;52.692;6.226;2023-01-10T21:22:25;5.10;;;2.00;;
51738;SDS011;37815;52.692;6.226;2023-01-10T21:27:27;4.28;;;2.17;;
51738;SDS011;37815;52.692;6.226;2023-01-10T21:32:30;2.55;;;1.83;;
51738;SDS011;37815;52.692;6.226;2023-01-10T21:37:31;3.10;;;2.00;;
51738;SDS011;37815;52.692;6.226;2023-01-10T21:42:32;4.40;;;2.35;;
51738;SDS011;37815;52.692;6.226;2023-01-10T21:47:43;2.60;;;2.00;;
51738;SDS011;37815;52.692;6.226;2023-01-10T21:52:44;3.60;;;2.90;;
51738;SDS011;37815;52.692;6.226;2023-01-10T21:57:44;2.80;;;2.15;;
51738;SDS011;37815;52.692;6.226;2023-01-10T22:02:45;4.47;;;1.90;;
51738;SDS011;37815;52.692;6.226;2023-01-10T22:07:46;3.05;;;2.10;;
51738;SDS011;37815;52.692;6.226;2023-01-10T22:12:47;5.03;;;2.22;;
51738;SDS011;37815;52.692;6.226;2023-01-10T22:17:48;3.28;;;2.10;;
51738;SDS011;37815;52.692;6.226;2023-01-10T22:22:48;3.95;;;2.53;;
51738;SDS011;37815;52.692;6.226;2023-01-10T22:27:49;5.80;;;2.05;;
51738;SDS011;37815;52.692;6.226;2023-01-10T22:32:53;3.30;;;1.90;;
51738;SDS011;37815;52.692;6.226;2023-01-10T22:37:55;3.00;;;2.15;;
51738;SDS011;37815;52.692;6.226;2023-01-10T22:42:55;4.53;;;2.58;;
51738;SDS011;37815;52.692;6.226;2023-01-10T22:47:56;3.20;;;1.88;;
51738;SDS011;37815;52.692;6.226;2023-01-10T22:52:57;3.28;;;2.08;;
51738;SDS011;37815;52.692;6.226;2023-01-10T22:57:58;2.50;;;1.75;;
51738;SDS011;37815;52.692;6.226;2023-01-10T23:02:58;2.72;;;2.20;;
51738;SDS011;37815;52.692;6.226;2023-01-10T23:07:59;3.65;;;1.90;;
51738;SDS011;37815;52.692;6.226;2023-01-10T23:12:59;4.35;;;2.17;;
51738;SDS011;37815;52.692;6.226;2023-01-10T23:18:01;2.40;;;1.83;;
51738;SDS011;37815;52.692;6.226;2023-01-10T23:23:02;2.25;;;1.80;;
51738;SDS011;37815;52.692;6.226;2023-01-10T23:28:02;2.42;;;1.70;;
51738;SDS011;37815;52.692;6.226;2023-01-10T23:33:03;2.33;;;1.85;;
51738;SDS011;37815;52.692;6.226;2023-01-10T23:38:03;2.17;;;1.55;;
51738;SDS011;37815;52.692;6.226;2023-01-10T23:43:04;1.73;;;1.38;;
51738;SDS011;37815;52.692;6.226;2023-01-10T23:48:05;2.22;;;1.52;;
51738;SDS011;37815;52.692;6.226;2023-01-10T23:53:06;2.38;;;1.42;;
51738;SDS011;37815;52.692;6.226;2023-01-10T23:58:07;2.33;;;1.42;;
